createdAt,value
2022-09-03T00:00:19.626Z,60.03
2022-09-03T00:03:02.612Z,60.02
2022-09-03T00:05:41.712Z,60.61
2022-09-03T00:08:18.750Z,60.46
2022-09-03T00:10:56.821Z,60.18
2022-09-03T00:13:30.788Z,60.59
2022-09-03T00:15:59.777Z,60.74
2022-09-03T00:18:31.346Z,60.68
2022-09-03T00:21:09.241Z,60.76
2022-09-03T00:23:40.491Z,61.02
2022-09-03T00:26:13.049Z,60.75
2022-09-03T00:28:47.672Z,61.16
2022-09-03T00:31:42.804Z,61.15
2022-09-03T00:34:32.534Z,61.20
2022-09-03T00:36:59.077Z,61.39
2022-09-03T00:39:27.781Z,61.80
2022-09-03T00:42:20.990Z,61.33
2022-09-03T00:45:25.540Z,61.83
2022-09-03T00:48:12.449Z,61.77
2022-09-03T00:51:14.743Z,62.04
2022-09-03T00:54:19.798Z,61.84
2022-09-03T00:56:56.409Z,61.88
2022-09-03T00:59:42.859Z,62.00
2022-09-03T01:02:31.185Z,62.27
2022-09-03T01:05:11.850Z,62.06
2022-09-03T01:07:54.596Z,62.22
2022-09-03T01:10:38.645Z,62.24
2022-09-03T01:13:14.556Z,62.52
2022-09-03T01:15:59.498Z,62.08
2022-09-03T01:18:38.029Z,62.06
2022-09-03T01:21:13.547Z,62.27
2022-09-03T01:24:31.782Z,62.39
2022-09-03T01:27:27.011Z,62.75
2022-09-03T01:30:04.266Z,62.80
2022-09-03T01:32:38.496Z,62.58
2022-09-03T01:35:15.154Z,62.59
2022-09-03T01:37:58.390Z,62.67
2022-09-03T01:40:39.198Z,62.93
2022-09-03T01:43:42.165Z,63.20
2022-09-03T01:46:23.617Z,63.17
2022-09-03T01:48:53.736Z,63.22
2022-09-03T01:51:23.971Z,63.42
2022-09-03T01:54:21.827Z,63.29
2022-09-03T01:57:26.432Z,63.37
2022-09-03T02:00:20.577Z,63.38
2022-09-03T02:02:51.301Z,63.49
2022-09-03T02:05:26.993Z,63.62
2022-09-03T02:08:01.455Z,63.61
2022-09-03T02:10:41.564Z,63.91
2022-09-03T02:13:28.717Z,63.83
2022-09-03T02:16:01.679Z,63.81
2022-09-03T02:18:41.362Z,63.75
2022-09-03T02:21:10.692Z,63.88
2022-09-03T02:23:40.722Z,64.23
2022-09-03T02:26:10.074Z,64.26
2022-09-03T02:28:37.169Z,64.34
2022-09-03T02:31:04.480Z,64.59
2022-09-03T02:33:38.474Z,64.41
2022-09-03T02:36:07.710Z,64.69
2022-09-03T02:38:34.831Z,64.85
2022-09-03T02:41:01.689Z,64.68
2022-09-03T02:43:40.969Z,64.98
2022-09-03T02:46:12.956Z,64.95
2022-09-03T02:48:39.529Z,65.09
2022-09-03T02:51:13.549Z,65.20
2022-09-03T02:53:40.635Z,65.43
2022-09-03T02:56:07.262Z,65.07
2022-09-03T02:58:34.017Z,65.41
2022-09-03T03:01:01.131Z,65.53
2022-09-03T03:03:27.987Z,65.70
2022-09-03T03:05:57.897Z,65.57
2022-09-03T03:08:27.705Z,65.51
2022-09-03T03:11:00.708Z,65.81
2022-09-03T03:13:29.116Z,66.21
2022-09-03T03:15:57.325Z,65.99
2022-09-03T03:18:24.141Z,66.07
2022-09-03T03:20:51.434Z,66.18
2022-09-03T03:23:18.082Z,66.37
2022-09-03T03:25:44.809Z,66.32
2022-09-03T03:28:11.401Z,66.54
2022-09-03T03:30:40.277Z,66.44
2022-09-03T03:33:07.284Z,66.59
2022-09-03T03:35:33.939Z,66.67
2022-09-03T03:38:00.505Z,66.64
2022-09-03T03:40:27.197Z,66.79
2022-09-03T03:42:54.562Z,66.79
2022-09-03T03:45:21.337Z,66.96
2022-09-03T03:47:48.031Z,67.29
2022-09-03T03:50:14.525Z,66.99
2022-09-03T03:52:41.013Z,67.17
2022-09-03T03:55:07.872Z,67.46
2022-09-03T03:57:34.408Z,67.41
2022-09-03T04:00:01.084Z,67.68
2022-09-03T04:02:40.923Z,67.91
2022-09-03T04:05:07.860Z,67.79
2022-09-03T04:07:34.933Z,67.79
2022-09-03T04:10:01.690Z,67.85
2022-09-03T04:12:28.299Z,67.86
2022-09-03T04:14:54.826Z,68.27
2022-09-03T04:17:25.143Z,68.29
2022-09-03T04:19:52.126Z,68.40
2022-09-03T04:22:19.619Z,68.56
2022-09-03T04:24:46.262Z,68.44
2022-09-03T04:27:12.793Z,68.87
2022-09-03T04:29:39.326Z,68.72
2022-09-03T04:32:24.740Z,68.97
2022-09-03T04:34:51.252Z,68.80
2022-09-03T04:37:19.899Z,69.19
2022-09-03T04:39:46.743Z,69.37
2022-09-03T04:42:13.321Z,69.25
2022-09-03T04:44:41.321Z,69.35
2022-09-03T04:47:08.048Z,69.61
2022-09-03T04:49:34.856Z,69.57
2022-09-03T04:52:02.608Z,69.81
2022-09-03T04:54:29.493Z,70.00
2022-09-03T04:56:56.588Z,69.67
2022-09-03T04:59:23.117Z,69.83
2022-09-03T05:01:49.730Z,69.87
2022-09-03T05:04:16.397Z,69.97
2022-09-03T05:06:43.451Z,70.32
2022-09-03T05:09:09.959Z,70.14
2022-09-03T05:11:36.622Z,70.23
2022-09-03T05:14:05.746Z,69.93
2022-09-03T05:16:32.423Z,70.17
2022-09-03T05:19:00.845Z,69.92
2022-09-03T05:21:28.587Z,69.87
2022-09-03T05:23:55.502Z,69.82
2022-09-03T05:26:26.644Z,69.70
2022-09-03T05:28:58.984Z,69.65
2022-09-03T05:31:28.247Z,69.46
2022-09-03T05:33:58.562Z,69.22
2022-09-03T05:36:27.406Z,69.20
2022-09-03T05:38:54.764Z,69.28
2022-09-03T05:41:23.167Z,69.10
2022-09-03T05:43:59.168Z,69.25
2022-09-03T05:46:32.254Z,69.11
2022-09-03T05:49:02.408Z,69.05
2022-09-03T05:51:30.220Z,69.12
2022-09-03T05:53:58.027Z,69.00
2022-09-03T05:56:26.965Z,68.89
2022-09-03T05:58:56.879Z,68.89
2022-09-03T06:01:24.809Z,68.72
2022-09-03T06:03:57.789Z,68.77
2022-09-03T06:06:25.649Z,68.56
2022-09-03T06:08:53.552Z,68.59
2022-09-03T06:11:20.750Z,68.45
2022-09-03T06:13:47.561Z,68.64
2022-09-03T06:16:14.158Z,68.67
2022-09-03T06:18:40.828Z,68.62
2022-09-03T06:21:08.289Z,68.30
2022-09-03T06:23:36.277Z,68.22
2022-09-03T06:26:13.881Z,68.30
2022-09-03T06:28:43.647Z,67.90
2022-09-03T06:31:15.580Z,67.93
2022-09-03T06:33:43.312Z,67.81
2022-09-03T06:36:15.451Z,67.46
2022-09-03T06:38:43.055Z,67.04
2022-09-03T06:41:13.463Z,67.17
2022-09-03T06:43:42.192Z,67.01
2022-09-03T06:46:12.424Z,67.15
2022-09-03T06:48:45.539Z,66.90
2022-09-03T06:51:17.817Z,66.99
2022-09-03T06:53:47.917Z,66.35
2022-09-03T06:56:25.977Z,66.30
2022-09-03T06:58:57.802Z,66.08
2022-09-03T07:01:31.200Z,66.13
2022-09-03T07:04:05.400Z,65.81
2022-09-03T07:06:37.111Z,65.65
2022-09-03T07:09:04.130Z,65.83
2022-09-03T07:11:33.329Z,65.50
2022-09-03T07:14:00.481Z,65.33
2022-09-03T07:16:30.514Z,65.17
2022-09-03T07:18:57.612Z,64.94
2022-09-03T07:21:27.026Z,65.05
2022-09-03T07:23:55.199Z,64.83
2022-09-03T07:26:24.219Z,64.66
2022-09-03T07:28:52.175Z,63.39
2022-09-03T07:31:26.352Z,63.94
2022-09-03T07:33:57.186Z,63.18
2022-09-03T07:36:26.288Z,62.82
2022-09-03T07:38:59.155Z,63.01
2022-09-03T07:41:29.149Z,63.06
2022-09-03T07:43:57.101Z,62.89
2022-09-03T07:46:26.503Z,62.61
2022-09-03T07:48:58.385Z,62.66
2022-09-03T07:51:27.856Z,62.47
2022-09-03T07:53:57.809Z,61.97
2022-09-03T07:56:25.792Z,61.56
2022-09-03T07:58:53.188Z,61.03
2022-09-03T08:01:21.781Z,60.58
2022-09-03T08:03:50.272Z,60.88
2022-09-03T08:06:18.797Z,60.77
2022-09-03T08:08:45.713Z,61.04
2022-09-03T08:11:17.347Z,60.70
2022-09-03T08:13:46.513Z,59.89
2022-09-03T08:16:14.380Z,60.03
2022-09-03T08:18:41.296Z,59.36
2022-09-03T08:21:15.404Z,59.47
2022-09-03T08:23:44.355Z,59.37
2022-09-03T08:26:11.949Z,58.89
2022-09-03T08:28:39.364Z,58.06
2022-09-03T08:31:07.026Z,57.39
2022-09-03T08:33:40.592Z,57.71
2022-09-03T08:36:15.881Z,57.82
2022-09-03T08:38:46.290Z,57.24
2022-09-03T08:41:23.665Z,57.36
2022-09-03T08:44:27.960Z,56.63
2022-09-03T08:47:48.432Z,55.98
2022-09-03T08:50:19.255Z,55.03
2022-09-03T08:52:50.012Z,55.22
2022-09-03T08:55:27.072Z,55.13
2022-09-03T08:58:15.635Z,54.93
2022-09-03T09:00:50.300Z,54.17
2022-09-03T09:04:00.490Z,54.06
2022-09-03T09:06:50.255Z,52.45
2022-09-03T09:09:28.425Z,51.47
2022-09-03T09:12:10.133Z,52.10
2022-09-03T09:14:58.492Z,52.19
2022-09-03T09:17:27.973Z,50.87
2022-09-03T09:20:10.002Z,51.48
2022-09-03T09:22:47.414Z,51.42
2022-09-03T09:25:20.499Z,51.23
2022-09-03T09:27:52.233Z,50.59
2022-09-03T09:30:19.868Z,50.42
2022-09-03T09:32:47.295Z,50.24
2022-09-03T09:35:17.429Z,50.45
2022-09-03T09:37:55.223Z,49.60
2022-09-03T09:40:45.004Z,48.20
2022-09-03T09:43:21.489Z,48.45
2022-09-03T09:45:50.385Z,48.41
2022-09-03T09:48:27.120Z,48.32
2022-09-03T09:51:06.416Z,47.45
2022-09-03T09:53:33.501Z,46.67
2022-09-03T09:56:00.487Z,47.31
2022-09-03T09:58:30.874Z,46.74
2022-09-03T10:01:13.085Z,46.09
2022-09-03T10:03:48.485Z,46.62
2022-09-03T10:06:35.313Z,45.48
2022-09-03T10:09:14.121Z,44.65
2022-09-03T10:11:45.097Z,44.81
2022-09-03T10:14:24.442Z,44.97
2022-09-03T10:17:00.116Z,45.03
2022-09-03T10:19:40.399Z,44.29
2022-09-03T10:22:13.184Z,44.18
2022-09-03T10:24:58.124Z,44.28
2022-09-03T10:27:25.906Z,43.78
2022-09-03T10:29:53.404Z,44.05
2022-09-03T10:32:51.210Z,44.04
2022-09-03T10:35:29.166Z,44.99
2022-09-03T10:38:06.347Z,44.32
2022-09-03T10:40:57.126Z,43.45
2022-09-03T10:43:55.748Z,43.49
2022-09-03T10:46:27.656Z,42.95
2022-09-03T10:49:17.879Z,42.48
2022-09-03T10:52:15.613Z,42.98
2022-09-03T10:55:15.146Z,42.81
2022-09-03T10:58:23.989Z,42.00
2022-09-03T11:01:01.988Z,42.68
2022-09-03T11:03:48.182Z,41.91
2022-09-03T11:06:43.655Z,42.39
2022-09-03T11:09:26.617Z,42.34
2022-09-03T11:12:01.783Z,42.51
2022-09-03T11:15:05.243Z,42.72
2022-09-03T11:17:46.817Z,41.71
2022-09-03T11:20:25.065Z,42.18
2022-09-03T11:23:00.045Z,41.82
2022-09-03T11:25:36.136Z,42.30
2022-09-03T11:28:21.214Z,42.09
2022-09-03T11:31:38.339Z,41.80
2022-09-03T11:34:23.674Z,41.60
2022-09-03T11:37:24.130Z,41.43
2022-09-03T11:39:59.820Z,40.77
2022-09-03T11:42:45.256Z,41.59
2022-09-03T11:45:30.078Z,41.33
2022-09-03T11:47:57.013Z,41.51
2022-09-03T11:50:26.668Z,41.08
2022-09-03T11:53:12.980Z,40.67
2022-09-03T11:56:00.721Z,40.48
2022-09-03T11:58:35.166Z,40.17
2022-09-03T12:01:04.281Z,40.31
2022-09-03T12:04:05.485Z,41.10
2022-09-03T12:06:46.943Z,40.55
2022-09-03T12:09:53.722Z,39.97
2022-09-03T12:12:57.228Z,39.61
2022-09-03T12:15:55.068Z,40.02
2022-09-03T12:18:25.659Z,40.38
2022-09-03T12:21:01.188Z,40.19
2022-09-03T12:23:45.010Z,39.81
2022-09-03T12:26:17.435Z,39.85
2022-09-03T12:29:05.931Z,39.53
2022-09-03T12:31:48.476Z,38.79
2022-09-03T12:34:17.490Z,39.16
2022-09-03T12:36:49.352Z,38.52
2022-09-03T12:39:18.071Z,39.05
2022-09-03T12:42:05.738Z,39.02
2022-09-03T12:44:33.398Z,38.84
2022-09-03T12:47:35.537Z,39.47
2022-09-03T12:50:07.870Z,39.17
2022-09-03T12:52:39.182Z,38.25
2022-09-03T12:55:08.436Z,38.72
2022-09-03T12:57:40.709Z,38.84
2022-09-03T13:00:10.451Z,39.11
2022-09-03T13:02:53.426Z,38.37
2022-09-03T13:05:35.146Z,38.77
2022-09-03T13:08:07.078Z,38.17
2022-09-03T13:10:41.980Z,38.35
2022-09-03T13:13:28.010Z,38.67
2022-09-03T13:16:09.943Z,38.17
2022-09-03T13:19:03.908Z,38.54
2022-09-03T13:21:36.009Z,38.32
2022-09-03T13:24:20.196Z,38.34
2022-09-03T13:26:55.753Z,38.84
2022-09-03T13:29:43.600Z,38.41
2022-09-03T13:32:29.103Z,38.29
2022-09-03T13:35:09.140Z,37.90
2022-09-03T13:37:45.537Z,37.72
2022-09-03T13:40:18.137Z,37.43
2022-09-03T13:43:02.809Z,37.48
2022-09-03T13:45:37.646Z,37.37
2022-09-03T13:48:29.357Z,37.28
2022-09-03T13:51:22.319Z,37.57
2022-09-03T13:54:22.327Z,37.12
2022-09-03T13:57:02.471Z,37.52
2022-09-03T13:59:50.790Z,37.84
2022-09-03T14:02:52.643Z,36.85
2022-09-03T14:05:42.197Z,37.16
2022-09-03T14:08:14.507Z,37.10
2022-09-03T14:11:20.376Z,37.88
2022-09-03T14:14:03.168Z,38.13
2022-09-03T14:16:55.596Z,37.59
2022-09-03T14:19:39.151Z,37.74
2022-09-03T14:22:24.590Z,37.83
2022-09-03T14:25:01.337Z,37.33
2022-09-03T14:27:30.742Z,36.84
2022-09-03T14:30:17.996Z,36.75
2022-09-03T14:32:56.434Z,37.25
2022-09-03T14:35:38.541Z,37.06
2022-09-03T14:38:30.594Z,36.96
2022-09-03T14:41:05.804Z,37.08
2022-09-03T14:44:00.068Z,36.69
2022-09-03T14:46:35.527Z,37.28
2022-09-03T14:50:03.800Z,37.82
2022-09-03T14:52:57.971Z,37.31
2022-09-03T14:55:33.364Z,37.58
2022-09-03T14:58:29.412Z,37.09
2022-09-03T15:01:02.675Z,37.30
2022-09-03T15:04:24.427Z,37.66
2022-09-03T15:07:27.779Z,37.73
2022-09-03T15:10:04.882Z,37.38
2022-09-03T15:12:43.195Z,37.45
2022-09-03T15:15:24.735Z,37.62
2022-09-03T15:18:05.077Z,37.83
2022-09-03T15:20:52.883Z,37.42
2022-09-03T15:23:41.179Z,37.48
2022-09-03T15:26:25.800Z,36.76
2022-09-03T15:29:27.377Z,36.85
2022-09-03T15:32:06.108Z,36.97
2022-09-03T15:35:23.771Z,36.83
2022-09-03T15:37:58.694Z,36.91
2022-09-03T15:40:33.223Z,36.76
2022-09-03T15:43:33.862Z,36.81
2022-09-03T15:46:13.562Z,36.72
2022-09-03T15:48:59.646Z,36.87
2022-09-03T15:51:43.107Z,35.90
2022-09-03T15:54:37.401Z,36.77
2022-09-03T15:57:12.436Z,36.10
2022-09-03T15:59:57.090Z,35.69
2022-09-03T16:02:34.001Z,33.67
2022-09-03T16:05:45.697Z,32.82
2022-09-03T16:08:49.553Z,31.18
2022-09-03T16:11:24.959Z,29.89
2022-09-03T16:14:17.661Z,29.56
2022-09-03T16:17:10.198Z,28.88
2022-09-03T16:19:59.780Z,27.01
2022-09-03T16:22:29.471Z,27.36
2022-09-03T16:25:16.812Z,26.48
2022-09-03T16:28:05.508Z,25.87
2022-09-03T16:30:58.660Z,25.17
2022-09-03T16:33:48.943Z,24.30
2022-09-03T16:37:14.824Z,24.51
2022-09-03T16:40:05.960Z,23.56
2022-09-03T16:43:01.375Z,23.59
2022-09-03T16:46:02.456Z,23.28
2022-09-03T16:48:35.599Z,23.28
2022-09-03T16:51:08.157Z,23.16
2022-09-03T16:54:09.176Z,22.83
2022-09-03T16:56:50.989Z,23.84
2022-09-03T16:59:58.963Z,24.80
2022-09-03T17:02:40.652Z,25.84
2022-09-03T17:05:40.525Z,27.23
2022-09-03T17:08:31.142Z,28.14
2022-09-03T17:11:30.152Z,28.92
2022-09-03T17:14:35.747Z,29.64
2022-09-03T17:17:34.469Z,30.34
2022-09-03T17:20:21.380Z,30.98
2022-09-03T17:23:05.760Z,32.12
2022-09-03T17:25:38.112Z,32.59
2022-09-03T17:28:42.462Z,33.15
2022-09-03T17:31:24.192Z,33.63
2022-09-03T17:34:00.120Z,34.36
2022-09-03T17:36:31.475Z,34.74
2022-09-03T17:39:16.827Z,35.17
2022-09-03T17:42:06.450Z,35.70
2022-09-03T17:45:21.788Z,36.32
2022-09-03T17:48:18.991Z,36.94
2022-09-03T17:51:32.043Z,37.43
2022-09-03T17:54:23.460Z,37.89
2022-09-03T17:57:10.596Z,38.22
2022-09-03T17:59:56.034Z,38.39
2022-09-03T18:02:30.101Z,38.97
2022-09-03T18:05:19.672Z,39.31
2022-09-03T18:08:00.660Z,39.65
2022-09-03T18:10:43.196Z,39.86
2022-09-03T18:13:48.506Z,40.43
2022-09-03T18:16:28.608Z,40.51
2022-09-03T18:19:06.585Z,41.11
2022-09-03T18:21:57.442Z,41.53
2022-09-03T18:25:03.661Z,41.69
2022-09-03T18:28:17.943Z,41.73
2022-09-03T18:31:03.949Z,42.22
2022-09-03T18:33:49.232Z,42.82
2022-09-03T18:36:34.089Z,42.79
2022-09-03T18:39:34.490Z,43.05
2022-09-03T18:42:37.501Z,43.51
2022-09-03T18:46:07.919Z,43.90
2022-09-03T18:49:13.643Z,44.09
2022-09-03T18:52:11.514Z,44.33
2022-09-03T18:55:22.215Z,44.68
2022-09-03T18:58:12.980Z,44.92
2022-09-03T19:01:14.457Z,44.86
2022-09-03T19:04:08.310Z,45.42
2022-09-03T19:07:09.416Z,45.63
2022-09-03T19:10:07.703Z,45.75
2022-09-03T19:13:12.916Z,45.97
2022-09-03T19:16:13.429Z,46.29
2022-09-03T19:19:15.646Z,46.55
2022-09-03T19:22:11.677Z,46.62
2022-09-03T19:24:56.885Z,46.93
2022-09-03T19:27:58.889Z,46.88
2022-09-03T19:30:56.856Z,47.02
2022-09-03T19:33:55.253Z,47.22
2022-09-03T19:37:09.274Z,47.50
2022-09-03T19:40:21.888Z,47.53
2022-09-03T19:43:45.424Z,47.74
2022-09-03T19:46:41.286Z,47.88
2022-09-03T19:50:00.679Z,48.09
2022-09-03T19:53:07.941Z,48.19
2022-09-03T19:55:57.877Z,48.29
2022-09-03T19:58:47.401Z,48.57
2022-09-03T20:01:32.737Z,48.61
2022-09-03T20:04:22.332Z,48.79
2022-09-03T20:07:07.296Z,49.06
2022-09-03T20:09:58.908Z,48.97
2022-09-03T20:12:29.963Z,49.23
2022-09-03T20:14:56.594Z,49.48
2022-09-03T20:17:36.458Z,49.85
2022-09-03T20:20:15.206Z,49.90
2022-09-03T20:22:53.847Z,49.92
2022-09-03T20:25:58.159Z,50.05
2022-09-03T20:28:52.250Z,50.23
2022-09-03T20:31:31.566Z,50.52
2022-09-03T20:34:16.237Z,50.41
2022-09-03T20:37:12.055Z,50.37
2022-09-03T20:40:14.184Z,50.59
2022-09-03T20:42:56.792Z,50.72
2022-09-03T20:45:31.993Z,51.05
2022-09-03T20:48:17.097Z,51.16
2022-09-03T20:50:57.381Z,51.05
2022-09-03T20:54:02.109Z,51.54
2022-09-03T20:57:06.547Z,51.31
2022-09-03T21:00:12.478Z,51.49
2022-09-03T21:03:09.042Z,51.55
2022-09-03T21:05:58.141Z,51.88
2022-09-03T21:09:01.017Z,52.13
2022-09-03T21:12:21.580Z,51.81
2022-09-03T21:14:50.831Z,52.37
2022-09-03T21:17:42.158Z,52.39
2022-09-03T21:20:15.895Z,52.19
2022-09-03T21:22:53.793Z,52.73
2022-09-03T21:25:26.452Z,53.02
2022-09-03T21:27:59.494Z,52.53
2022-09-03T21:30:27.427Z,53.32
2022-09-03T21:33:04.748Z,53.20
2022-09-03T21:35:53.674Z,52.90
2022-09-03T21:38:31.220Z,53.26
2022-09-03T21:41:07.455Z,53.47
2022-09-03T21:43:45.299Z,53.63
2022-09-03T21:46:31.091Z,53.48
2022-09-03T21:49:07.294Z,54.00
2022-09-03T21:51:41.328Z,53.82
2022-09-03T21:54:14.440Z,54.12
2022-09-03T21:56:50.618Z,54.01
2022-09-03T21:59:45.171Z,54.11
2022-09-03T22:02:23.417Z,54.21
2022-09-03T22:04:51.041Z,54.48
2022-09-03T22:07:53.171Z,54.55
2022-09-03T22:10:40.536Z,54.41
2022-09-03T22:13:21.084Z,54.75
2022-09-03T22:15:55.789Z,55.04
2022-09-03T22:18:29.120Z,55.12
2022-09-03T22:21:20.523Z,55.31
2022-09-03T22:24:07.268Z,55.40
2022-09-03T22:26:49.160Z,55.84
2022-09-03T22:29:24.502Z,55.44
2022-09-03T22:32:09.749Z,55.55
2022-09-03T22:34:43.435Z,55.93
2022-09-03T22:37:22.844Z,56.00
2022-09-03T22:39:49.785Z,55.84
2022-09-03T22:42:32.321Z,56.02
2022-09-03T22:45:05.756Z,56.42
2022-09-03T22:47:44.716Z,56.11
2022-09-03T22:50:38.556Z,56.64
2022-09-03T22:53:25.901Z,56.87
2022-09-03T22:56:02.898Z,56.69
2022-09-03T22:58:37.125Z,57.15
2022-09-03T23:01:09.500Z,56.85
2022-09-03T23:03:50.967Z,57.09
2022-09-03T23:06:25.941Z,57.20
2022-09-03T23:08:59.877Z,57.31
2022-09-03T23:11:32.509Z,57.35
2022-09-03T23:14:04.744Z,57.87
2022-09-03T23:16:38.849Z,57.70
2022-09-03T23:21:58.943Z,58.08
2022-09-03T23:25:07.321Z,58.23
2022-09-03T23:27:50.614Z,58.01
2022-09-03T23:30:17.272Z,58.05
2022-09-03T23:32:44.893Z,58.54
2022-09-03T23:35:17.729Z,58.80
2022-09-03T23:38:25.571Z,58.94
2022-09-03T23:40:56.942Z,59.06
2022-09-03T23:43:44.302Z,58.93
2022-09-03T23:46:30.844Z,59.31
2022-09-03T23:49:16.496Z,59.48
2022-09-03T23:52:03.039Z,59.78
2022-09-03T23:54:39.740Z,59.86
2022-09-03T23:57:16.474Z,59.65
